createdAt,value
2023-02-11T00:01:34.001Z,102096.50
2023-02-11T00:04:01.617Z,102101.53
2023-02-11T00:06:29.587Z,102113.88
2023-02-11T00:08:56.652Z,102111.13
2023-02-11T00:11:26.386Z,102105.06
2023-02-11T00:13:52.819Z,102110.25
2023-02-11T00:16:20.786Z,102106.75
2023-02-11T00:18:47.483Z,102117.47
2023-02-11T00:21:16.989Z,102108.56
2023-02-11T00:23:44.452Z,102120.81
2023-02-11T00:26:19.376Z,102126.13
2023-02-11T00:28:47.414Z,102113.53
2023-02-11T00:31:15.124Z,102117.22
2023-02-11T00:33:41.970Z,102108.34
2023-02-11T00:36:11.945Z,102111.03
2023-02-11T00:38:38.229Z,102113.69
2023-02-11T00:41:04.866Z,102104.06
2023-02-11T00:43:31.182Z,102104.91
2023-02-11T00:45:57.626Z,102104.28
2023-02-11T00:48:23.953Z,102096.69
2023-02-11T00:50:50.473Z,102095.84
2023-02-11T00:53:16.841Z,102095.19
2023-02-11T00:55:43.193Z,102093.53
2023-02-11T00:58:09.496Z,102097.97
2023-02-11T01:00:35.819Z,102083.13
2023-02-11T01:03:02.197Z,102091.19
2023-02-11T01:05:28.825Z,102089.56
2023-02-11T01:07:55.163Z,102078.22
2023-02-11T01:10:21.730Z,102076.34
2023-02-11T01:12:48.083Z,102074.81
2023-02-11T01:15:17.077Z,102072.38
2023-02-11T01:17:43.414Z,102077.63
2023-02-11T01:20:15.094Z,102063.56
2023-02-11T01:22:41.505Z,102070.56
2023-02-11T01:25:08.626Z,102076.75
2023-02-11T01:27:35.317Z,102072.41
2023-02-11T01:30:01.650Z,102069.75
2023-02-11T01:32:27.975Z,102055.00
2023-02-11T01:34:54.370Z,102065.66
2023-02-11T01:37:20.723Z,102053.28
2023-02-11T01:39:47.016Z,102054.31
2023-02-11T01:42:20.562Z,102056.06
2023-02-11T01:44:49.485Z,102049.13
2023-02-11T01:47:15.787Z,102044.69
2023-02-11T01:49:45.780Z,102059.56
2023-02-11T01:52:22.136Z,102041.19
2023-02-11T01:55:17.784Z,102029.75
2023-02-11T01:57:48.605Z,102024.66
2023-02-11T02:00:17.682Z,102031.00
2023-02-11T02:02:50.679Z,102026.53
2023-02-11T02:05:35.585Z,102029.22
2023-02-11T02:08:29.550Z,102024.91
2023-02-11T02:10:56.713Z,102003.88
2023-02-11T02:13:23.681Z,102003.28
2023-02-11T02:15:56.047Z,102006.75
2023-02-11T02:18:36.033Z,101999.78
2023-02-11T02:21:45.406Z,102003.47
2023-02-11T02:24:49.182Z,101999.09
2023-02-11T02:27:33.775Z,101995.53
2023-02-11T02:30:21.872Z,101982.41
2023-02-11T02:33:22.291Z,101981.47
2023-02-11T02:36:00.597Z,101985.03
2023-02-11T02:38:52.154Z,101973.66
2023-02-11T02:41:23.049Z,101964.88
2023-02-11T02:43:51.392Z,101973.66
2023-02-11T02:46:19.802Z,101981.34
2023-02-11T02:48:49.613Z,101982.06
2023-02-11T02:51:53.683Z,101982.16
2023-02-11T02:54:57.184Z,101990.75
2023-02-11T02:57:33.698Z,101993.34
2023-02-11T03:00:13.619Z,102016.94
2023-02-11T03:02:55.436Z,102017.94
2023-02-11T03:05:31.458Z,102017.88
2023-02-11T03:08:18.597Z,102020.56
2023-02-11T03:10:48.958Z,102027.75
2023-02-11T03:13:17.869Z,102022.38
2023-02-11T03:15:48.958Z,102011.06
2023-02-11T03:18:18.590Z,102011.88
2023-02-11T03:20:48.687Z,102001.38
2023-02-11T03:23:29.468Z,101996.06
2023-02-11T03:26:02.862Z,101995.06
2023-02-11T03:28:40.411Z,101998.56
2023-02-11T03:31:25.333Z,101990.91
2023-02-11T03:34:09.961Z,101986.66
2023-02-11T03:36:45.904Z,101991.97
2023-02-11T03:39:16.571Z,101993.59
2023-02-11T03:41:45.975Z,101999.63
2023-02-11T03:44:15.756Z,101989.13
2023-02-11T03:46:47.021Z,101980.38
2023-02-11T03:49:17.117Z,101973.28
2023-02-11T03:51:44.106Z,101969.69
2023-02-11T03:54:15.952Z,101961.72
2023-02-11T03:56:50.819Z,101959.97
2023-02-11T03:59:17.251Z,101945.78
2023-02-11T04:01:43.743Z,101935.31
2023-02-11T04:04:10.279Z,101923.88
2023-02-11T04:06:36.727Z,101921.25
2023-02-11T04:09:03.642Z,101925.63
2023-02-11T04:11:30.036Z,101914.19
2023-02-11T04:13:56.362Z,101902.69
2023-02-11T04:16:22.746Z,101892.06
2023-02-11T04:18:49.423Z,101912.22
2023-02-11T04:21:15.735Z,101912.44
2023-02-11T04:23:42.053Z,101922.00
2023-02-11T04:26:08.443Z,101917.66
2023-02-11T04:28:35.854Z,101926.34
2023-02-11T04:31:02.351Z,101922.59
2023-02-11T04:33:28.657Z,101937.78
2023-02-11T04:35:54.977Z,101924.69
2023-02-11T04:38:23.837Z,101936.97
2023-02-11T04:40:51.206Z,101958.97
2023-02-11T04:43:17.635Z,101948.41
2023-02-11T04:45:43.954Z,101958.22
2023-02-11T04:48:10.245Z,101953.91
2023-02-11T04:50:36.526Z,101956.59
2023-02-11T04:53:02.952Z,101961.03
2023-02-11T04:55:29.245Z,101976.03
2023-02-11T04:57:55.602Z,101965.41
2023-02-11T05:00:22.070Z,101961.91
2023-02-11T05:02:48.353Z,101947.16
2023-02-11T05:05:14.695Z,101945.63
2023-02-11T05:07:41.094Z,101942.00
2023-02-11T05:10:07.650Z,101937.56
2023-02-11T05:12:34.033Z,101932.44
2023-02-11T05:15:00.382Z,101934.19
2023-02-11T05:17:26.746Z,101927.94
2023-02-11T05:19:53.071Z,101923.63
2023-02-11T05:22:19.686Z,101919.34
2023-02-11T05:24:45.985Z,101907.97
2023-02-11T05:27:12.283Z,101910.50
2023-02-11T05:29:38.710Z,101918.31
2023-02-11T05:32:05.119Z,101904.22
2023-02-11T05:34:31.439Z,101905.09
2023-02-11T05:36:57.776Z,101906.97
2023-02-11T05:39:24.113Z,101913.91
2023-02-11T05:41:50.515Z,101917.47
2023-02-11T05:44:16.812Z,101916.72
2023-02-11T05:46:43.302Z,101893.97
2023-02-11T05:49:09.742Z,101902.84
2023-02-11T05:51:36.104Z,101905.38
2023-02-11T05:54:02.445Z,101914.19
2023-02-11T05:56:28.783Z,101911.56
2023-02-11T05:58:55.112Z,101919.25
2023-02-11T06:01:21.409Z,101906.03
2023-02-11T06:03:49.935Z,101917.63
2023-02-11T06:06:16.330Z,101911.38
2023-02-11T06:08:42.973Z,101923.69
2023-02-11T06:11:09.730Z,101922.00
2023-02-11T06:13:36.328Z,101916.69
2023-02-11T06:16:03.189Z,101927.19
2023-02-11T06:18:29.852Z,101930.44
2023-02-11T06:20:56.562Z,101928.06
2023-02-11T06:23:23.268Z,101943.94
2023-02-11T06:25:50.155Z,101923.63
2023-02-11T06:28:16.651Z,101917.69
2023-02-11T06:30:43.137Z,101922.00
2023-02-11T06:33:09.473Z,101928.88
2023-02-11T06:35:39.064Z,101943.75
2023-02-11T06:38:05.386Z,101940.28
2023-02-11T06:40:31.723Z,101944.63
2023-02-11T06:42:58.109Z,101938.44
2023-02-11T06:45:24.458Z,101931.38
2023-02-11T06:47:52.276Z,101931.50
2023-02-11T06:50:18.761Z,101920.06
2023-02-11T06:52:45.094Z,101928.69
2023-02-11T06:55:11.479Z,101931.13
2023-02-11T06:57:37.861Z,101933.75
2023-02-11T07:00:05.801Z,101939.72
2023-02-11T07:02:32.307Z,101936.38
2023-02-11T07:04:58.602Z,101940.84
2023-02-11T07:07:24.928Z,101934.63
2023-02-11T07:09:51.278Z,101947.91
2023-02-11T07:12:17.583Z,101946.13
2023-02-11T07:14:43.999Z,101940.00
2023-02-11T07:17:10.356Z,101932.84
2023-02-11T07:19:36.656Z,101930.25
2023-02-11T07:22:03.000Z,101937.56
2023-02-11T07:24:29.345Z,101915.63
2023-02-11T07:26:55.678Z,101932.44
2023-02-11T07:29:22.138Z,101935.13
2023-02-11T07:31:48.833Z,101944.13
2023-02-11T07:34:15.305Z,101932.06
2023-02-11T07:36:43.616Z,101926.94
2023-02-11T07:39:09.908Z,101931.31
2023-02-11T07:41:37.981Z,101920.13
2023-02-11T07:44:04.788Z,101919.38
2023-02-11T07:46:31.210Z,101914.13
2023-02-11T07:48:57.851Z,101923.56
2023-02-11T07:51:26.976Z,101914.88
2023-02-11T07:53:55.242Z,101921.81
2023-02-11T07:56:22.400Z,101927.94
2023-02-11T07:58:49.743Z,101923.88
2023-02-11T08:01:18.855Z,101934.66
2023-02-11T08:03:48.315Z,101934.09
2023-02-11T08:06:17.426Z,101942.84
2023-02-11T08:08:44.382Z,101950.78
2023-02-11T08:11:13.537Z,101947.53
2023-02-11T08:13:40.331Z,101951.34
2023-02-11T08:16:08.009Z,101969.03
2023-02-11T08:18:35.644Z,101971.97
2023-02-11T08:21:11.052Z,101966.69
2023-02-11T08:23:42.214Z,101972.19
2023-02-11T08:26:15.196Z,101974.00
2023-02-11T08:28:43.758Z,101964.28
2023-02-11T08:31:16.518Z,101962.50
2023-02-11T08:33:43.508Z,101967.75
2023-02-11T08:36:15.910Z,101973.91
2023-02-11T08:38:42.529Z,101983.66
2023-02-11T08:41:09.130Z,101974.16
2023-02-11T08:43:36.739Z,101983.69
2023-02-11T08:46:03.688Z,101988.28
2023-02-11T08:48:30.142Z,101990.31
2023-02-11T08:50:57.067Z,102003.06
2023-02-11T08:53:23.559Z,102002.66
2023-02-11T08:55:54.504Z,101983.53
2023-02-11T08:58:22.114Z,102012.06
2023-02-11T09:00:49.555Z,102016.72
2023-02-11T09:03:16.838Z,102018.03
2023-02-11T09:05:44.421Z,102002.50
2023-02-11T09:08:11.416Z,102008.94
2023-02-11T09:10:38.502Z,102013.53
2023-02-11T09:13:05.160Z,102016.47
2023-02-11T09:15:31.656Z,102008.50
2023-02-11T09:18:04.365Z,102003.28
2023-02-11T09:20:30.766Z,101999.09
2023-02-11T09:22:59.662Z,102009.72
2023-02-11T09:25:26.247Z,102013.34
2023-02-11T09:27:53.717Z,102008.28
2023-02-11T09:30:20.126Z,101996.16
2023-02-11T09:32:46.475Z,102008.75
2023-02-11T09:35:15.433Z,102002.22
2023-02-11T09:37:41.736Z,102014.00
2023-02-11T09:40:11.883Z,102008.53
2023-02-11T09:46:16.429Z,102018.13
2023-02-11T09:52:36.206Z,102030.13
2023-02-11T09:55:27.093Z,102023.88
2023-02-11T09:58:00.402Z,102023.91
2023-02-11T10:00:53.614Z,102032.56
2023-02-11T10:03:44.886Z,102028.13
2023-02-11T10:06:25.144Z,102039.63
2023-02-11T10:09:11.530Z,102042.19
2023-02-11T10:12:25.189Z,102046.69
2023-02-11T10:15:24.488Z,102044.25
2023-02-11T10:18:10.485Z,102036.41
2023-02-11T10:20:45.312Z,102037.22
2023-02-11T10:23:25.655Z,102029.25
2023-02-11T10:25:57.385Z,102027.50
2023-02-11T10:28:30.407Z,102024.03
2023-02-11T10:31:10.709Z,102020.53
2023-02-11T10:33:47.702Z,102026.66
2023-02-11T10:36:17.605Z,102014.09
2023-02-11T10:38:44.273Z,102010.34
2023-02-11T10:41:18.146Z,102013.69
2023-02-11T10:43:45.772Z,102011.00
2023-02-11T10:46:19.110Z,102021.63
2023-02-11T10:48:55.534Z,102026.09
2023-02-11T10:51:27.289Z,102026.06
2023-02-11T10:54:14.329Z,102027.63
2023-02-11T10:56:45.748Z,102028.22
2023-02-11T10:59:29.229Z,102027.22
2023-02-11T11:02:34.589Z,102014.59
2023-02-11T11:05:06.697Z,102022.41
2023-02-11T11:07:34.194Z,102021.72
2023-02-11T11:10:25.036Z,102028.03
2023-02-11T11:12:51.345Z,102027.94
2023-02-11T11:15:24.007Z,102025.31
2023-02-11T11:18:22.025Z,102015.66
2023-02-11T11:20:59.573Z,102012.97
2023-02-11T11:23:27.972Z,102011.19
2023-02-11T11:26:12.128Z,102021.81
2023-02-11T11:28:42.678Z,102012.19
2023-02-11T11:31:15.676Z,102005.31
2023-02-11T11:33:44.542Z,102011.56
2023-02-11T11:36:17.019Z,102018.69
2023-02-11T11:38:48.976Z,102017.16
2023-02-11T11:41:31.004Z,102015.63
2023-02-11T11:44:04.232Z,102014.09
2023-02-11T11:46:32.231Z,102002.75
2023-02-11T11:49:20.669Z,102008.13
2023-02-11T11:52:09.717Z,101998.38
2023-02-11T11:54:36.900Z,102003.81
2023-02-11T11:57:12.462Z,102010.91
2023-02-11T11:59:38.808Z,102004.75
2023-02-11T12:02:35.315Z,102005.59
2023-02-11T12:05:09.482Z,102017.78
2023-02-11T12:07:56.331Z,102006.19
2023-02-11T12:10:51.764Z,102018.25
2023-02-11T12:13:30.526Z,102020.72
2023-02-11T12:16:34.571Z,102016.41
2023-02-11T12:19:41.294Z,102004.06
2023-02-11T12:22:33.978Z,102001.34
2023-02-11T12:25:08.393Z,102009.41
2023-02-11T12:28:22.756Z,102001.56
2023-02-11T12:31:19.883Z,102005.22
2023-02-11T12:33:55.138Z,101994.72
2023-02-11T12:36:37.454Z,101994.84
2023-02-11T12:39:23.139Z,101985.16
2023-02-11T12:42:35.915Z,101989.53
2023-02-11T12:45:11.002Z,101995.56
2023-02-11T12:47:59.303Z,101996.50
2023-02-11T12:50:44.514Z,101995.56
2023-02-11T12:53:22.522Z,102004.16
2023-02-11T12:55:55.163Z,102005.78
2023-02-11T12:58:35.618Z,101989.28
2023-02-11T13:01:16.954Z,101991.91
2023-02-11T13:03:56.410Z,101978.84
2023-02-11T13:06:37.337Z,101978.81
2023-02-11T13:09:11.148Z,101976.25
2023-02-11T13:11:42.367Z,101973.72
2023-02-11T13:14:30.437Z,101980.00
2023-02-11T13:16:58.462Z,101967.75
2023-02-11T13:19:34.413Z,101979.28
2023-02-11T13:22:24.122Z,101968.75
2023-02-11T13:25:06.083Z,101968.66
2023-02-11T13:28:01.864Z,101962.53
2023-02-11T13:30:36.586Z,101957.31
2023-02-11T13:33:18.190Z,101956.50
2023-02-11T13:36:09.851Z,101958.38
2023-02-11T13:38:39.373Z,101957.59
2023-02-11T13:41:40.452Z,101947.94
2023-02-11T13:44:09.547Z,101948.81
2023-02-11T13:46:53.739Z,101941.78
2023-02-11T13:49:24.600Z,101941.75
2023-02-11T13:51:52.239Z,101922.34
2023-02-11T13:54:29.837Z,101947.13
2023-02-11T13:57:52.493Z,101955.06
2023-02-11T14:00:36.862Z,101946.22
2023-02-11T14:03:44.070Z,101947.06
2023-02-11T14:06:28.984Z,101944.38
2023-02-11T14:09:19.754Z,101939.09
2023-02-11T14:12:20.377Z,101957.63
2023-02-11T14:15:07.722Z,101960.22
2023-02-11T14:17:34.810Z,101963.75
2023-02-11T14:20:04.587Z,101968.06
2023-02-11T14:22:43.852Z,101960.03
2023-02-11T14:25:23.161Z,101959.13
2023-02-11T14:27:55.207Z,101967.00
2023-02-11T14:30:59.348Z,101967.75
2023-02-11T14:33:50.149Z,101970.25
2023-02-11T14:36:49.067Z,101979.13
2023-02-11T14:39:21.277Z,101977.38
2023-02-11T14:41:50.835Z,101971.16
2023-02-11T14:44:25.158Z,101981.72
2023-02-11T14:46:56.483Z,101984.38
2023-02-11T14:49:41.384Z,101981.69
2023-02-11T14:52:25.634Z,101978.16
2023-02-11T14:55:06.030Z,101977.22
2023-02-11T14:57:33.349Z,101971.97
2023-02-11T15:00:13.723Z,101979.97
2023-02-11T15:02:40.191Z,101975.59
2023-02-11T15:05:20.024Z,101979.06
2023-02-11T15:07:49.530Z,101992.34
2023-02-11T15:10:20.967Z,101986.06
2023-02-11T15:12:50.292Z,101986.91
2023-02-11T15:15:17.063Z,101977.19
2023-02-11T15:17:44.363Z,101990.50
2023-02-11T15:20:31.936Z,101997.53
2023-02-11T15:23:04.812Z,101987.84
2023-02-11T15:25:34.039Z,101989.53
2023-02-11T15:28:00.773Z,101985.06
2023-02-11T15:30:30.963Z,101985.03
2023-02-11T15:33:00.282Z,101992.97
2023-02-11T15:35:39.696Z,101998.19
2023-02-11T15:38:07.231Z,101998.13
2023-02-11T15:40:36.150Z,101990.22
2023-02-11T15:43:08.162Z,101988.34
2023-02-11T15:45:35.769Z,101989.13
2023-02-11T15:48:26.745Z,101993.59
2023-02-11T15:51:01.330Z,101994.41
2023-02-11T15:53:36.296Z,101995.22
2023-02-11T15:56:34.801Z,102010.31
2023-02-11T15:59:13.339Z,102005.84
2023-02-11T16:01:40.854Z,102012.94
2023-02-11T16:04:08.769Z,102006.78
2023-02-11T16:06:42.729Z,102012.03
2023-02-11T16:09:10.010Z,102010.31
2023-02-11T16:11:48.726Z,102011.19
2023-02-11T16:14:23.019Z,102014.63
2023-02-11T16:16:53.298Z,102012.94
2023-02-11T16:19:23.582Z,101999.63
2023-02-11T16:21:53.390Z,101996.97
2023-02-11T16:24:28.779Z,102005.78
2023-02-11T16:26:59.289Z,102005.72
2023-02-11T16:29:36.923Z,102006.63
2023-02-11T16:32:22.243Z,102012.81
2023-02-11T16:34:49.268Z,102003.91
2023-02-11T16:37:15.577Z,102022.44
2023-02-11T16:39:42.010Z,102017.09
2023-02-11T16:42:09.680Z,102027.66
2023-02-11T16:44:35.994Z,102023.22
2023-02-11T16:47:04.205Z,102035.63
2023-02-11T16:49:34.439Z,102025.94
2023-02-11T16:52:05.757Z,102022.34
2023-02-11T16:54:32.543Z,102031.25
2023-02-11T16:56:59.240Z,102029.44
2023-02-11T16:59:25.710Z,102028.53
2023-02-11T17:01:53.573Z,102016.09
2023-02-11T17:04:26.139Z,102025.91
2023-02-11T17:06:52.599Z,102027.72
2023-02-11T17:09:21.439Z,102021.53
2023-02-11T17:11:48.754Z,102032.97
2023-02-11T17:14:15.205Z,102028.47
2023-02-11T17:16:42.512Z,102041.69
2023-02-11T17:19:13.183Z,102032.78
2023-02-11T17:21:44.234Z,102038.97
2023-02-11T17:24:11.358Z,102031.97
2023-02-11T17:26:38.844Z,102033.81
2023-02-11T17:29:06.634Z,102045.16
2023-02-11T17:31:33.359Z,102043.41
2023-02-11T17:33:59.769Z,102056.63
2023-02-11T17:36:26.088Z,102050.44
2023-02-11T17:38:52.563Z,102056.59
2023-02-11T17:41:18.929Z,102053.88
2023-02-11T17:43:45.242Z,102056.53
2023-02-11T17:46:12.976Z,102067.00
2023-02-11T17:48:39.518Z,102076.59
2023-02-11T17:51:19.199Z,102073.06
2023-02-11T17:53:46.584Z,102079.31
2023-02-11T17:56:13.029Z,102072.34
2023-02-11T17:58:39.471Z,102072.47
2023-02-11T18:01:05.917Z,102073.31
2023-02-11T18:03:32.972Z,102072.38
2023-02-11T18:06:00.391Z,102073.25
2023-02-11T18:08:26.727Z,102070.63
2023-02-11T18:10:53.184Z,102068.91
2023-02-11T18:13:19.475Z,102072.34
2023-02-11T18:15:45.915Z,102066.19
2023-02-11T18:18:12.445Z,102061.88
2023-02-11T18:20:40.542Z,102078.66
2023-02-11T18:23:06.878Z,102076.78
2023-02-11T18:25:33.476Z,102073.16
2023-02-11T18:27:59.840Z,102079.34
2023-02-11T18:30:26.315Z,102076.72
2023-02-11T18:32:56.221Z,102090.09
2023-02-11T18:35:25.855Z,102088.34
2023-02-11T18:37:52.342Z,102076.06
2023-02-11T18:40:21.045Z,102079.56
2023-02-11T18:42:49.548Z,102068.97
2023-02-11T18:45:15.902Z,102076.03
2023-02-11T18:47:42.254Z,102074.19
2023-02-11T18:50:13.663Z,102083.84
2023-02-11T18:52:40.056Z,102069.81
2023-02-11T18:55:06.878Z,102082.09
2023-02-11T18:57:33.498Z,102078.66
2023-02-11T19:00:02.297Z,102082.22
2023-02-11T19:02:29.274Z,102086.66
2023-02-11T19:04:55.652Z,102084.84
2023-02-11T19:07:22.037Z,102083.06
2023-02-11T19:09:51.079Z,102076.91
2023-02-11T19:12:17.394Z,102094.50
2023-02-11T19:14:43.673Z,102090.00
2023-02-11T19:17:12.367Z,102098.88
2023-02-11T19:19:38.886Z,102092.81
2023-02-11T19:22:10.565Z,102105.13
2023-02-11T19:24:37.864Z,102106.72
2023-02-11T19:27:04.806Z,102105.84
2023-02-11T19:29:35.083Z,102097.94
2023-02-11T19:32:03.976Z,102097.13
2023-02-11T19:34:40.736Z,102099.69
2023-02-11T19:37:14.741Z,102105.00
2023-02-11T19:39:43.132Z,102099.72
2023-02-11T19:42:12.891Z,102089.09
2023-02-11T19:44:39.319Z,102105.97
2023-02-11T19:47:06.815Z,102111.28
2023-02-11T19:49:36.249Z,102103.34
2023-02-11T19:52:02.584Z,102109.44
2023-02-11T19:54:31.508Z,102113.78
2023-02-11T19:56:58.639Z,102097.94
2023-02-11T19:59:30.273Z,102116.56
2023-02-11T20:01:58.258Z,102119.22
2023-02-11T20:04:25.102Z,102114.78
2023-02-11T20:06:51.536Z,102113.88
2023-02-11T20:09:18.007Z,102110.31
2023-02-11T20:11:44.646Z,102113.84
2023-02-11T20:14:15.066Z,102112.03
2023-02-11T20:16:48.765Z,102112.03
2023-02-11T20:19:22.332Z,102109.41
2023-02-11T20:21:52.216Z,102128.81
2023-02-11T20:24:19.798Z,102126.94
2023-02-11T20:26:48.136Z,102139.34
2023-02-11T20:29:16.420Z,102132.34
2023-02-11T20:31:43.070Z,102135.75
2023-02-11T20:34:09.915Z,102132.19
2023-02-11T20:36:37.934Z,102138.38
2023-02-11T20:39:05.857Z,102126.94
2023-02-11T20:41:48.235Z,102115.63
2023-02-11T20:44:14.610Z,102112.16
2023-02-11T20:46:43.824Z,102128.81
2023-02-11T20:49:12.464Z,102118.22
2023-02-11T20:51:39.608Z,102129.72
2023-02-11T20:54:06.608Z,102108.63
2023-02-11T20:56:35.178Z,102118.44
2023-02-11T20:59:03.693Z,102115.59
2023-02-11T21:01:33.515Z,102120.88
2023-02-11T21:04:02.609Z,102125.16
2023-02-11T21:06:34.604Z,102129.47
2023-02-11T21:09:01.237Z,102124.09
2023-02-11T21:11:27.583Z,102111.75
2023-02-11T21:13:53.990Z,102122.44
2023-02-11T21:16:20.755Z,102119.88
2023-02-11T21:18:47.513Z,102116.34
2023-02-11T21:21:13.868Z,102118.00
2023-02-11T21:23:40.194Z,102116.13
2023-02-11T21:26:07.652Z,102123.03
2023-02-11T21:28:34.472Z,102125.69
2023-02-11T21:31:01.434Z,102124.75
2023-02-11T21:33:28.662Z,102131.72
2023-02-11T21:35:59.392Z,102125.50
2023-02-11T21:38:26.758Z,102137.84
2023-02-11T21:40:53.492Z,102134.19
2023-02-11T21:43:20.477Z,102147.28
2023-02-11T21:45:49.094Z,102142.84
2023-02-11T21:48:17.217Z,102152.38
2023-02-11T21:50:46.093Z,102154.78
2023-02-11T21:53:13.395Z,102149.34
2023-02-11T21:55:40.297Z,102160.63
2023-02-11T21:58:07.519Z,102157.00
2023-02-11T22:00:34.284Z,102163.97
2023-02-11T22:03:00.847Z,102171.84
2023-02-11T22:05:27.479Z,102163.91
2023-02-11T22:07:53.805Z,102166.53
2023-02-11T22:10:20.539Z,102165.72
2023-02-11T22:12:46.874Z,102171.84
2023-02-11T22:15:13.332Z,102167.44
2023-02-11T22:17:39.817Z,102166.63
2023-02-11T22:20:07.889Z,102161.41
2023-02-11T22:22:35.236Z,102165.06
2023-02-11T22:25:02.080Z,102159.28
2023-02-11T22:27:28.401Z,102154.19
2023-02-11T22:29:54.741Z,102160.56
2023-02-11T22:32:21.104Z,102166.75
2023-02-11T22:34:47.399Z,102157.19
2023-02-11T22:37:14.151Z,102143.19
2023-02-11T22:39:41.888Z,102154.84
2023-02-11T22:42:08.871Z,102144.38
2023-02-11T22:44:36.554Z,102143.50
2023-02-11T22:47:02.902Z,102142.53
2023-02-11T22:49:29.213Z,102130.97
2023-02-11T22:51:55.608Z,102138.09
2023-02-11T22:54:21.936Z,102156.56
2023-02-11T22:56:51.099Z,102164.34
2023-02-11T22:59:17.818Z,102159.03
2023-02-11T23:01:45.518Z,102158.94
2023-02-11T23:04:14.267Z,102161.69
2023-02-11T23:06:40.600Z,102155.59
2023-02-11T23:09:09.024Z,102156.44
2023-02-11T23:11:36.043Z,102159.91
2023-02-11T23:14:02.408Z,102175.69
2023-02-11T23:16:31.670Z,102181.78
2023-02-11T23:19:04.795Z,102182.56
2023-02-11T23:21:33.894Z,102179.94
2023-02-11T23:24:18.421Z,102178.28
2023-02-11T23:26:44.862Z,102180.03
2023-02-11T23:29:12.215Z,102188.78
2023-02-11T23:31:40.435Z,102186.97
2023-02-11T23:34:07.869Z,102183.44
2023-02-11T23:36:34.216Z,102177.31
2023-02-11T23:39:00.846Z,102187.91
2023-02-11T23:41:27.409Z,102194.88
2023-02-11T23:43:56.755Z,102193.91
2023-02-11T23:46:25.179Z,102188.50
2023-02-11T23:48:51.948Z,102195.47
2023-02-11T23:51:18.774Z,102185.78
2023-02-11T23:53:49.278Z,102190.16
2023-02-11T23:56:24.040Z,102175.13
2023-02-11T23:58:53.398Z,102181.28
